createdAt,value
2022-08-21T00:02:15.049Z,100983.47
2022-08-21T00:04:48.197Z,100999.31
2022-08-21T00:07:27.716Z,100993.78
2022-08-21T00:09:56.070Z,100986.81
2022-08-21T00:12:24.026Z,100985.38
2022-08-21T00:14:57.061Z,100984.13
2022-08-21T00:17:28.202Z,100969.13
2022-08-21T00:19:56.121Z,100969.13
2022-08-21T00:22:25.434Z,100968.06
2022-08-21T00:24:57.531Z,100971.06
2022-08-21T00:27:25.401Z,100970.97
2022-08-21T00:29:54.301Z,100974.31
2022-08-21T00:32:27.182Z,100977.09
2022-08-21T00:34:55.566Z,100989.56
2022-08-21T00:37:25.295Z,100985.13
2022-08-21T00:39:57.473Z,100984.06
2022-08-21T00:42:25.529Z,100983.34
2022-08-21T00:44:53.681Z,100975.75
2022-08-21T00:47:26.094Z,100971.47
2022-08-21T00:49:53.989Z,100986.06
2022-08-21T00:52:32.313Z,100976.38
2022-08-21T00:55:02.320Z,100982.59
2022-08-21T00:57:45.042Z,100983.31
2022-08-21T01:00:17.991Z,100979.44
2022-08-21T01:02:50.088Z,100977.84
2022-08-21T01:05:18.574Z,100973.66
2022-08-21T01:07:47.924Z,100970.06
2022-08-21T01:10:23.959Z,100974.41
2022-08-21T01:12:53.574Z,100974.00
2022-08-21T01:15:28.566Z,100971.41
2022-08-21T01:17:56.547Z,100975.84
2022-08-21T01:20:32.622Z,100978.00
2022-08-21T01:23:04.447Z,100963.84
2022-08-21T01:25:35.258Z,100959.41
2022-08-21T01:28:09.037Z,100955.25
2022-08-21T01:30:40.676Z,100948.91
2022-08-21T01:33:08.582Z,100948.31
2022-08-21T01:35:41.369Z,100953.31
2022-08-21T01:38:10.895Z,100951.84
2022-08-21T01:40:38.947Z,100949.59
2022-08-21T01:43:10.841Z,100939.16
2022-08-21T01:45:38.780Z,100941.91
2022-08-21T01:48:07.014Z,100947.97
2022-08-21T01:50:41.160Z,100958.56
2022-08-21T01:53:10.404Z,100953.91
2022-08-21T01:55:38.232Z,100958.84
2022-08-21T01:58:10.030Z,100966.81
2022-08-21T02:00:37.901Z,100970.53
2022-08-21T02:03:06.742Z,100969.56
2022-08-21T02:05:39.089Z,100970.28
2022-08-21T02:08:09.185Z,100971.09
2022-08-21T02:10:43.985Z,100982.25
2022-08-21T02:13:16.997Z,100972.38
2022-08-21T02:15:48.962Z,100974.00
2022-08-21T02:18:16.837Z,100973.22
2022-08-21T02:20:54.103Z,100963.44
2022-08-21T02:23:26.555Z,100959.78
2022-08-21T02:26:01.200Z,100970.00
2022-08-21T02:28:29.355Z,100957.78
2022-08-21T02:30:58.914Z,100954.66
2022-08-21T02:33:31.169Z,100951.91
2022-08-21T02:36:01.609Z,100960.94
2022-08-21T02:38:30.262Z,100970.81
2022-08-21T02:41:01.746Z,100959.41
2022-08-21T02:43:31.887Z,100961.16
2022-08-21T02:46:00.474Z,100957.56
2022-08-21T02:48:30.584Z,100959.59
2022-08-21T02:51:05.040Z,100962.53
2022-08-21T02:53:34.173Z,100958.47
2022-08-21T02:56:08.634Z,100954.50
2022-08-21T02:58:41.281Z,100948.63
2022-08-21T03:01:11.927Z,100949.47
2022-08-21T03:03:43.957Z,100948.34
2022-08-21T03:06:16.603Z,100943.97
2022-08-21T03:08:48.264Z,100943.41
2022-08-21T03:11:20.170Z,100951.03
2022-08-21T03:13:47.996Z,100947.78
2022-08-21T03:16:17.890Z,100951.88
2022-08-21T03:18:45.863Z,100952.75
2022-08-21T03:21:15.836Z,100949.63
2022-08-21T03:23:45.978Z,100943.72
2022-08-21T03:26:13.976Z,100943.28
2022-08-21T03:28:45.104Z,100949.41
2022-08-21T03:31:15.149Z,100950.31
2022-08-21T03:33:42.966Z,100952.28
2022-08-21T03:36:13.089Z,100957.63
2022-08-21T03:38:41.542Z,100961.28
2022-08-21T03:41:10.313Z,100965.88
2022-08-21T03:43:42.558Z,100965.66
2022-08-21T03:46:12.544Z,100964.97
2022-08-21T03:48:42.660Z,100945.38
2022-08-21T03:51:13.025Z,100950.78
2022-08-21T03:53:40.851Z,100957.72
2022-08-21T03:56:11.102Z,100954.72
2022-08-21T03:58:39.369Z,100958.47
2022-08-21T04:01:08.496Z,100959.25
2022-08-21T04:03:42.094Z,100963.34
2022-08-21T04:06:10.328Z,100967.66
2022-08-21T04:08:46.087Z,100965.88
2022-08-21T04:11:13.965Z,100965.38
2022-08-21T04:13:44.661Z,100965.75
2022-08-21T04:16:15.364Z,100963.69
2022-08-21T04:18:44.463Z,100963.41
2022-08-21T04:21:14.575Z,100965.47
2022-08-21T04:23:47.039Z,100974.34
2022-08-21T04:26:14.891Z,100966.78
2022-08-21T04:28:42.790Z,100967.84
2022-08-21T04:31:16.455Z,100967.03
2022-08-21T04:33:45.789Z,100978.06
2022-08-21T04:36:13.714Z,100967.50
2022-08-21T04:38:47.739Z,100972.31
2022-08-21T04:41:15.607Z,100970.78
2022-08-21T04:43:43.856Z,100975.13
2022-08-21T04:46:15.803Z,100975.97
2022-08-21T04:48:45.187Z,100976.44
2022-08-21T04:51:20.743Z,100969.00
2022-08-21T04:53:55.998Z,100965.41
2022-08-21T04:56:29.208Z,100973.09
2022-08-21T04:59:03.482Z,100966.50
2022-08-21T05:01:35.323Z,100968.19
2022-08-21T05:04:10.516Z,100956.91
2022-08-21T05:06:44.526Z,100955.56
2022-08-21T05:09:16.645Z,100949.56
2022-08-21T05:11:45.485Z,100952.91
2022-08-21T05:14:15.738Z,100960.72
2022-08-21T05:16:44.883Z,100956.53
2022-08-21T05:19:16.357Z,100947.53
2022-08-21T05:21:46.089Z,100948.63
2022-08-21T05:24:16.965Z,100952.47
2022-08-21T05:26:47.755Z,100960.50
2022-08-21T05:29:18.877Z,100954.38
2022-08-21T05:31:52.140Z,100956.31
2022-08-21T05:34:24.316Z,100946.22
2022-08-21T05:36:56.219Z,100948.50
2022-08-21T05:39:26.179Z,100953.66
2022-08-21T05:41:54.051Z,100942.50
2022-08-21T05:44:22.010Z,100943.47
2022-08-21T05:46:52.379Z,100949.59
2022-08-21T05:49:21.985Z,100944.28
2022-08-21T05:51:51.708Z,100943.09
2022-08-21T05:54:21.646Z,100937.09
2022-08-21T05:56:49.923Z,100945.38
2022-08-21T05:59:19.626Z,100938.41
2022-08-21T06:01:49.889Z,100942.13
2022-08-21T06:04:17.731Z,100936.69
2022-08-21T06:06:49.231Z,100926.13
2022-08-21T06:09:19.174Z,100929.59
2022-08-21T06:11:47.003Z,100935.13
2022-08-21T06:14:18.706Z,100929.84
2022-08-21T06:16:48.689Z,100928.84
2022-08-21T06:19:16.705Z,100936.19
2022-08-21T06:21:46.048Z,100930.03
2022-08-21T06:24:16.109Z,100932.25
2022-08-21T06:26:43.958Z,100923.75
2022-08-21T06:29:15.497Z,100932.44
2022-08-21T06:31:45.998Z,100918.94
2022-08-21T06:34:18.671Z,100934.16
2022-08-21T06:36:49.791Z,100929.53
2022-08-21T06:39:25.554Z,100923.31
2022-08-21T06:42:01.357Z,100916.59
2022-08-21T06:44:31.751Z,100925.84
2022-08-21T06:46:59.578Z,100928.09
2022-08-21T06:49:31.412Z,100927.31
2022-08-21T06:52:02.645Z,100934.94
2022-08-21T06:54:36.494Z,100931.38
2022-08-21T06:57:04.795Z,100927.00
2022-08-21T06:59:33.581Z,100923.75
2022-08-21T07:02:04.109Z,100914.00
2022-08-21T07:04:31.956Z,100919.31
2022-08-21T07:06:59.820Z,100913.28
2022-08-21T07:09:31.386Z,100923.81
2022-08-21T07:12:01.446Z,100926.16
2022-08-21T07:14:29.326Z,100912.28
2022-08-21T07:16:59.337Z,100916.72
2022-08-21T07:19:27.386Z,100922.53
2022-08-21T07:21:59.379Z,100913.81
2022-08-21T07:24:31.293Z,100914.66
2022-08-21T07:26:59.187Z,100914.22
2022-08-21T07:29:27.102Z,100916.47
2022-08-21T07:31:57.138Z,100917.81
2022-08-21T07:34:26.841Z,100913.19
2022-08-21T07:36:54.665Z,100908.44
2022-08-21T07:39:25.335Z,100907.75
2022-08-21T07:41:56.417Z,100910.06
2022-08-21T07:44:24.222Z,100913.69
2022-08-21T07:46:52.115Z,100911.19
2022-08-21T07:49:20.078Z,100915.81
2022-08-21T07:51:47.921Z,100917.75
2022-08-21T07:54:17.930Z,100919.13
2022-08-21T07:56:56.599Z,100911.78
2022-08-21T07:59:26.669Z,100916.84
2022-08-21T08:01:54.466Z,100913.75
2022-08-21T08:04:26.490Z,100914.94
2022-08-21T08:06:56.645Z,100912.47
2022-08-21T08:09:24.479Z,100909.84
2022-08-21T08:11:54.241Z,100906.50
2022-08-21T08:14:31.295Z,100910.41
2022-08-21T08:17:01.856Z,100909.69
2022-08-21T08:19:32.575Z,100902.03
2022-08-21T08:22:00.396Z,100915.84
2022-08-21T08:24:30.425Z,100906.34
2022-08-21T08:27:00.604Z,100916.69
2022-08-21T08:29:31.972Z,100897.97
2022-08-21T08:32:00.220Z,100892.66
2022-08-21T08:34:28.472Z,100886.22
2022-08-21T08:37:00.788Z,100892.53
2022-08-21T08:39:29.464Z,100888.88
2022-08-21T08:42:32.764Z,100891.97
2022-08-21T08:45:00.790Z,100890.13
2022-08-21T08:47:32.073Z,100897.69
2022-08-21T08:50:04.656Z,100898.63
2022-08-21T08:52:37.719Z,100897.25
2022-08-21T08:55:08.570Z,100900.38
2022-08-21T08:57:42.186Z,100894.22
2022-08-21T09:00:15.178Z,100895.19
2022-08-21T09:02:50.293Z,100904.56
2022-08-21T09:05:24.422Z,100895.06
2022-08-21T09:08:09.469Z,100894.28
2022-08-21T09:10:47.820Z,100894.84
2022-08-21T09:13:26.211Z,100899.78
2022-08-21T09:16:03.295Z,100899.06
2022-08-21T09:18:46.620Z,100899.47
2022-08-21T09:21:21.701Z,100894.22
2022-08-21T09:23:57.736Z,100889.81
2022-08-21T09:26:28.172Z,100891.94
2022-08-21T09:28:58.711Z,100897.66
2022-08-21T09:31:30.682Z,100897.28
2022-08-21T09:34:03.748Z,100892.66
2022-08-21T09:36:38.604Z,100891.34
2022-08-21T09:39:11.274Z,100896.59
2022-08-21T09:41:40.183Z,100897.69
2022-08-21T09:44:11.422Z,100897.06
2022-08-21T09:46:53.877Z,100898.88
2022-08-21T09:49:30.491Z,100900.47
2022-08-21T09:52:00.079Z,100897.56
2022-08-21T09:54:33.316Z,100895.22
2022-08-21T09:57:24.694Z,100893.03
2022-08-21T09:59:52.854Z,100892.88
2022-08-21T10:02:32.346Z,100891.47
2022-08-21T10:05:04.420Z,100891.06
2022-08-21T10:07:34.322Z,100893.94
2022-08-21T10:10:07.909Z,100894.69
2022-08-21T10:12:47.836Z,100893.38
2022-08-21T10:15:24.636Z,100900.69
2022-08-21T10:18:08.582Z,100906.84
2022-08-21T10:20:46.362Z,100904.78
2022-08-21T10:23:31.683Z,100900.13
2022-08-21T10:26:14.258Z,100894.06
2022-08-21T10:28:54.070Z,100897.78
2022-08-21T10:31:35.020Z,100898.78
2022-08-21T10:34:18.322Z,100901.16
2022-08-21T10:36:52.877Z,100894.53
2022-08-21T10:39:36.058Z,100898.31
2022-08-21T10:42:30.108Z,100897.97
2022-08-21T10:45:13.626Z,100892.72
2022-08-21T10:47:48.813Z,100889.59
2022-08-21T10:50:34.000Z,100890.94
2022-08-21T10:53:13.624Z,100886.66
2022-08-21T10:55:47.682Z,100883.09
2022-08-21T10:58:23.264Z,100890.53
2022-08-21T11:00:56.808Z,100895.50
2022-08-21T11:03:34.090Z,100885.63
2022-08-21T11:06:13.007Z,100887.50
2022-08-21T11:08:47.648Z,100887.72
2022-08-21T11:11:23.329Z,100892.25
2022-08-21T11:13:57.367Z,100883.72
2022-08-21T11:16:31.663Z,100894.06
2022-08-21T11:19:10.013Z,100896.50
2022-08-21T11:21:46.838Z,100898.41
2022-08-21T11:24:37.820Z,100894.94
2022-08-21T11:27:13.920Z,100889.59
2022-08-21T11:29:43.912Z,100886.63
2022-08-21T11:32:32.215Z,100885.41
2022-08-21T11:35:10.278Z,100889.97
2022-08-21T11:37:53.014Z,100893.28
2022-08-21T11:40:36.435Z,100899.25
2022-08-21T11:43:15.680Z,100897.66
2022-08-21T11:45:51.138Z,100902.00
2022-08-21T11:48:36.977Z,100907.41
2022-08-21T11:51:09.834Z,100909.84
2022-08-21T11:53:52.093Z,100903.66
2022-08-21T11:56:27.182Z,100907.63
2022-08-21T11:59:00.929Z,100908.28
2022-08-21T12:01:34.694Z,100905.75
2022-08-21T12:04:08.689Z,100910.28
2022-08-21T12:06:39.275Z,100911.13
2022-08-21T12:09:12.961Z,100915.47
2022-08-21T12:11:51.452Z,100913.09
2022-08-21T12:14:21.428Z,100907.47
2022-08-21T12:16:52.174Z,100905.72
2022-08-21T12:19:34.259Z,100907.47
2022-08-21T12:22:13.879Z,100913.66
2022-08-21T12:24:46.918Z,100911.00
2022-08-21T12:27:27.009Z,100914.34
2022-08-21T12:29:59.989Z,100914.09
2022-08-21T12:32:31.460Z,100912.19
2022-08-21T12:35:06.701Z,100901.50
2022-08-21T12:37:41.366Z,100909.00
2022-08-21T12:40:31.560Z,100909.28
2022-08-21T12:43:03.559Z,100910.28
2022-08-21T12:45:34.963Z,100911.00
2022-08-21T12:48:11.063Z,100908.28
2022-08-21T12:50:43.239Z,100912.88
2022-08-21T12:53:27.933Z,100903.75
2022-08-21T12:56:04.291Z,100904.19
2022-08-21T12:58:34.335Z,100910.44
2022-08-21T13:01:04.541Z,100909.16
2022-08-21T13:03:35.607Z,100904.19
2022-08-21T13:06:06.657Z,100903.13
2022-08-21T13:08:42.562Z,100911.50
2022-08-21T13:11:18.062Z,100902.13
2022-08-21T13:14:04.861Z,100903.97
2022-08-21T13:16:36.260Z,100900.78
2022-08-21T13:19:09.396Z,100898.78
2022-08-21T13:21:44.526Z,100897.41
2022-08-21T13:24:40.780Z,100897.16
2022-08-21T13:27:21.238Z,100895.72
2022-08-21T13:29:53.613Z,100888.75
2022-08-21T13:32:28.828Z,100892.31
2022-08-21T13:34:57.063Z,100901.09
2022-08-21T13:37:27.202Z,100887.97
2022-08-21T13:39:55.254Z,100895.47
2022-08-21T13:42:25.724Z,100891.31
2022-08-21T13:44:56.184Z,100894.06
2022-08-21T13:47:24.141Z,100891.09
2022-08-21T13:49:59.355Z,100889.78
2022-08-21T13:52:28.565Z,100898.16
2022-08-21T13:55:00.630Z,100893.25
2022-08-21T13:57:32.555Z,100895.72
2022-08-21T14:00:20.171Z,100900.84
2022-08-21T14:02:52.051Z,100886.81
2022-08-21T14:05:25.877Z,100891.56
2022-08-21T14:08:03.917Z,100880.38
2022-08-21T14:10:33.714Z,100888.88
2022-08-21T14:13:06.249Z,100888.19
2022-08-21T14:15:37.081Z,100884.47
2022-08-21T14:18:16.440Z,100880.81
2022-08-21T14:20:44.660Z,100880.53
2022-08-21T14:23:29.385Z,100883.31
2022-08-21T14:26:01.741Z,100879.38
2022-08-21T14:28:34.565Z,100873.53
2022-08-21T14:31:15.752Z,100869.44
2022-08-21T14:33:44.976Z,100870.13
2022-08-21T14:36:13.017Z,100867.94
2022-08-21T14:38:42.731Z,100869.25
2022-08-21T14:41:17.837Z,100868.59
2022-08-21T14:43:59.872Z,100868.41
2022-08-21T14:46:44.005Z,100862.84
2022-08-21T14:49:24.272Z,100867.06
2022-08-21T14:51:57.756Z,100874.81
2022-08-21T14:54:31.011Z,100866.00
2022-08-21T14:57:02.031Z,100869.25
2022-08-21T14:59:33.052Z,100862.31
2022-08-21T15:02:01.242Z,100863.31
2022-08-21T15:04:29.191Z,100860.66
2022-08-21T15:06:57.352Z,100859.47
2022-08-21T15:09:27.520Z,100856.69
2022-08-21T15:11:57.176Z,100856.97
2022-08-21T15:14:27.367Z,100859.28
2022-08-21T15:16:56.604Z,100864.69
2022-08-21T15:19:24.702Z,100864.38
2022-08-21T15:21:52.602Z,100863.97
2022-08-21T15:24:20.500Z,100860.16
2022-08-21T15:26:48.950Z,100858.28
2022-08-21T15:29:20.759Z,100859.63
2022-08-21T15:31:57.791Z,100862.53
2022-08-21T15:34:28.275Z,100859.03
2022-08-21T15:36:59.237Z,100866.41
2022-08-21T15:39:31.066Z,100855.25
2022-08-21T15:42:02.660Z,100858.69
2022-08-21T15:44:39.003Z,100855.97
2022-08-21T15:47:13.983Z,100855.97
2022-08-21T15:49:43.682Z,100865.38
2022-08-21T15:52:13.913Z,100860.06
2022-08-21T15:54:43.449Z,100865.63
2022-08-21T15:57:14.116Z,100864.44
2022-08-21T15:59:44.246Z,100864.50
2022-08-21T16:02:15.829Z,100873.38
2022-08-21T16:04:43.955Z,100858.16
2022-08-21T16:07:12.407Z,100859.63
2022-08-21T16:09:42.309Z,100861.56
2022-08-21T16:12:16.808Z,100870.31
2022-08-21T16:14:46.929Z,100859.88
2022-08-21T16:17:16.070Z,100859.00
2022-08-21T16:19:44.043Z,100862.63
2022-08-21T16:22:12.305Z,100862.88
2022-08-21T16:24:42.219Z,100864.81
2022-08-21T16:27:11.084Z,100865.31
2022-08-21T16:29:41.507Z,100862.41
2022-08-21T16:32:10.059Z,100857.88
2022-08-21T16:34:44.313Z,100865.81
2022-08-21T16:37:14.298Z,100865.81
2022-08-21T16:39:53.990Z,100864.09
2022-08-21T16:42:25.953Z,100862.81
2022-08-21T16:44:54.886Z,100863.03
2022-08-21T16:47:26.883Z,100852.38
2022-08-21T16:49:57.371Z,100863.50
2022-08-21T16:52:25.268Z,100857.25
2022-08-21T16:54:53.083Z,100859.16
2022-08-21T16:57:21.326Z,100859.47
2022-08-21T16:59:49.288Z,100859.78
2022-08-21T17:02:29.380Z,100859.78
2022-08-21T17:04:58.582Z,100857.13
2022-08-21T17:07:26.594Z,100847.94
2022-08-21T17:09:54.546Z,100857.66
2022-08-21T17:12:22.512Z,100854.50
2022-08-21T17:14:52.900Z,100863.63
2022-08-21T17:17:21.081Z,100865.63
2022-08-21T17:19:49.037Z,100857.88
2022-08-21T17:22:20.117Z,100867.78
2022-08-21T17:24:49.985Z,100871.47
2022-08-21T17:27:28.226Z,100882.19
2022-08-21T17:29:59.329Z,100887.31
2022-08-21T17:32:29.459Z,100882.00
2022-08-21T17:34:57.547Z,100882.16
2022-08-21T17:37:29.551Z,100879.41
2022-08-21T17:39:59.638Z,100881.31
2022-08-21T17:42:27.512Z,100891.34
2022-08-21T17:44:58.677Z,100888.44
2022-08-21T17:47:27.158Z,100895.13
2022-08-21T17:49:55.076Z,100888.03
2022-08-21T17:52:24.738Z,100898.13
2022-08-21T17:54:54.692Z,100895.75
2022-08-21T17:57:28.218Z,100899.50
2022-08-21T17:59:58.551Z,100898.25
2022-08-21T18:02:26.921Z,100902.44
2022-08-21T18:04:56.420Z,100901.03
2022-08-21T18:07:31.906Z,100902.44
2022-08-21T18:10:02.515Z,100900.28
2022-08-21T18:12:31.644Z,100909.22
2022-08-21T18:15:00.952Z,100915.47
2022-08-21T18:17:32.249Z,100906.13
2022-08-21T18:20:00.653Z,100918.00
2022-08-21T18:22:28.781Z,100919.66
2022-08-21T18:24:56.851Z,100917.16
2022-08-21T18:27:29.860Z,100918.41
2022-08-21T18:30:02.175Z,100918.78
2022-08-21T18:32:32.488Z,100919.72
2022-08-21T18:35:01.459Z,100919.19
2022-08-21T18:37:32.361Z,100923.53
2022-08-21T18:40:03.456Z,100928.78
2022-08-21T18:42:39.289Z,100927.03
2022-08-21T18:45:13.389Z,100929.50
2022-08-21T18:47:47.626Z,100926.28
2022-08-21T18:50:21.606Z,100920.47
2022-08-21T18:52:55.075Z,100922.16
2022-08-21T18:55:25.451Z,100914.00
2022-08-21T18:57:55.701Z,100911.44
2022-08-21T19:00:32.755Z,100915.31
2022-08-21T19:03:01.771Z,100914.09
2022-08-21T19:05:38.999Z,100913.19
2022-08-21T19:08:08.902Z,100913.50
2022-08-21T19:10:42.756Z,100909.53
2022-08-21T19:13:17.676Z,100909.69
2022-08-21T19:15:54.772Z,100913.03
2022-08-21T19:18:27.992Z,100912.63
2022-08-21T19:21:00.280Z,100911.91
2022-08-21T19:23:30.223Z,100913.53
2022-08-21T19:26:01.788Z,100917.94
2022-08-21T19:28:37.529Z,100919.75
2022-08-21T19:31:23.983Z,100917.13
2022-08-21T19:33:59.713Z,100909.56
2022-08-21T19:36:31.405Z,100910.66
2022-08-21T19:39:01.080Z,100916.19
2022-08-21T19:41:37.444Z,100916.41
2022-08-21T19:44:09.987Z,100921.22
2022-08-21T19:46:45.249Z,100921.47
2022-08-21T19:49:16.500Z,100918.47
2022-08-21T19:51:49.421Z,100914.97
2022-08-21T19:54:20.352Z,100912.56
2022-08-21T19:56:52.354Z,100925.91
2022-08-21T19:59:24.883Z,100912.94
2022-08-21T20:01:53.544Z,100916.19
2022-08-21T20:04:22.423Z,100923.03
2022-08-21T20:06:51.128Z,100919.31
2022-08-21T20:09:25.359Z,100922.31
2022-08-21T20:11:57.547Z,100923.38
2022-08-21T20:14:33.936Z,100920.38
2022-08-21T20:17:06.135Z,100922.19
2022-08-21T20:19:38.926Z,100923.75
2022-08-21T20:22:07.469Z,100927.00
2022-08-21T20:24:37.500Z,100922.91
2022-08-21T20:27:07.278Z,100933.13
2022-08-21T20:29:39.312Z,100941.19
2022-08-21T20:32:12.525Z,100944.66
2022-08-21T20:34:44.922Z,100941.88
2022-08-21T20:37:22.251Z,100940.44
2022-08-21T20:40:06.745Z,100945.03
2022-08-21T20:42:35.193Z,100950.44
2022-08-21T20:45:08.051Z,100958.72
2022-08-21T20:47:39.036Z,100956.44
2022-08-21T20:50:13.647Z,100962.06
2022-08-21T20:52:43.105Z,100956.31
2022-08-21T20:55:13.161Z,100954.88
2022-08-21T20:57:57.695Z,100960.28
2022-08-21T21:00:33.877Z,100958.84
2022-08-21T21:03:15.691Z,100952.22
2022-08-21T21:05:51.225Z,100964.97
2022-08-21T21:08:26.038Z,100962.44
2022-08-21T21:10:59.232Z,100959.44
2022-08-21T21:13:36.478Z,100957.50
2022-08-21T21:16:12.881Z,100956.78
2022-08-21T21:18:48.318Z,100960.88
2022-08-21T21:21:21.541Z,100966.16
2022-08-21T21:24:03.373Z,100963.28
2022-08-21T21:26:36.047Z,100950.91
2022-08-21T21:29:16.464Z,100955.34
2022-08-21T21:31:45.583Z,100959.31
2022-08-21T21:34:17.217Z,100960.38
2022-08-21T21:36:56.185Z,100955.34
2022-08-21T21:39:36.361Z,100955.94
2022-08-21T21:42:13.753Z,100950.53
2022-08-21T21:45:04.391Z,100960.00
2022-08-21T21:47:48.702Z,100957.34
2022-08-21T21:50:36.548Z,100951.81
2022-08-21T21:53:25.614Z,100958.16
2022-08-21T21:56:07.551Z,100948.56
2022-08-21T21:59:08.284Z,100949.16
2022-08-21T22:01:47.795Z,100953.84
2022-08-21T22:04:28.407Z,100953.97
2022-08-21T22:09:57.765Z,100951.00
2022-08-21T22:12:49.744Z,100947.88
2022-08-21T22:15:26.433Z,100940.91
2022-08-21T22:18:02.414Z,100948.25
2022-08-21T22:20:41.497Z,100954.13
2022-08-21T22:23:13.542Z,100951.97
2022-08-21T22:25:50.599Z,100952.22
2022-08-21T22:28:25.601Z,100954.63
2022-08-21T22:31:00.481Z,100952.09
2022-08-21T22:33:29.944Z,100947.63
2022-08-21T22:36:03.360Z,100954.75
2022-08-21T22:38:37.108Z,100954.25
2022-08-21T22:41:17.342Z,100952.34
2022-08-21T22:43:57.764Z,100949.31
2022-08-21T22:46:37.058Z,100947.53
2022-08-21T22:49:10.117Z,100958.56
2022-08-21T22:51:46.774Z,100956.78
2022-08-21T22:54:35.497Z,100954.63
2022-08-21T22:57:09.906Z,100960.25
2022-08-21T22:59:42.115Z,100959.41
2022-08-21T23:02:37.381Z,100957.38
2022-08-21T23:05:16.356Z,100963.13
2022-08-21T23:07:52.383Z,100961.16
2022-08-21T23:10:34.567Z,100958.03
2022-08-21T23:13:10.485Z,100961.03
2022-08-21T23:15:47.095Z,100965.72
2022-08-21T23:18:33.952Z,100968.69
2022-08-21T23:21:09.930Z,100973.09
2022-08-21T23:23:51.607Z,100970.47
2022-08-21T23:26:27.688Z,100976.66
2022-08-21T23:32:02.831Z,100966.13
2022-08-21T23:34:46.747Z,100965.06
2022-08-21T23:37:53.073Z,100973.09
2022-08-21T23:40:51.042Z,100977.25
2022-08-21T23:43:35.587Z,100981.59
2022-08-21T23:46:33.948Z,100985.91
2022-08-21T23:49:08.411Z,100981.13
2022-08-21T23:51:47.526Z,100980.41
2022-08-21T23:54:23.394Z,100986.19
2022-08-21T23:57:08.141Z,100988.66
2022-08-21T23:59:47.542Z,100989.84
